createdAt,value
2022-12-03T00:01:14.296Z,25.47
2022-12-03T00:03:41.426Z,24.97
2022-12-03T00:06:08.444Z,26.07
2022-12-03T00:08:35.506Z,24.57
2022-12-03T00:11:02.433Z,24.17
2022-12-03T00:13:29.383Z,25.27
2022-12-03T00:15:56.424Z,25.23
2022-12-03T00:18:23.361Z,24.33
2022-12-03T00:20:50.417Z,26.40
2022-12-03T00:23:17.377Z,24.90
2022-12-03T00:25:44.317Z,26.40
2022-12-03T00:28:11.340Z,24.03
2022-12-03T00:30:38.299Z,24.90
2022-12-03T00:33:05.176Z,25.07
2022-12-03T00:35:32.088Z,24.73
2022-12-03T00:37:59.134Z,25.80
2022-12-03T00:40:27.517Z,25.97
2022-12-03T00:42:54.422Z,23.77
2022-12-03T00:45:21.396Z,23.23
2022-12-03T00:47:48.379Z,23.20
2022-12-03T00:50:15.384Z,22.73
2022-12-03T00:52:42.495Z,22.33
2022-12-03T00:55:09.777Z,24.77
2022-12-03T00:57:36.749Z,23.23
2022-12-03T01:00:06.245Z,21.63
2022-12-03T01:02:33.155Z,23.17
2022-12-03T01:05:01.433Z,23.13
2022-12-03T01:07:28.647Z,23.73
2022-12-03T01:09:55.643Z,23.63
2022-12-03T01:12:22.590Z,23.50
2022-12-03T01:14:49.637Z,23.73
2022-12-03T01:17:16.585Z,24.50
2022-12-03T01:19:48.305Z,24.57
2022-12-03T01:22:15.589Z,22.57
2022-12-03T01:24:42.538Z,23.13
2022-12-03T01:27:09.452Z,23.67
2022-12-03T01:29:36.336Z,22.87
2022-12-03T01:32:19.327Z,23.13
2022-12-03T01:34:51.350Z,22.60
2022-12-03T01:37:20.916Z,24.70
2022-12-03T01:39:47.915Z,20.33
2022-12-03T01:42:24.137Z,23.00
2022-12-03T01:44:57.512Z,22.63
2022-12-03T01:47:34.709Z,23.73
2022-12-03T01:50:30.642Z,23.63
2022-12-03T01:53:01.204Z,26.67
2022-12-03T01:55:28.640Z,25.80
2022-12-03T01:57:59.480Z,24.47
2022-12-03T02:00:28.462Z,23.93
2022-12-03T02:03:02.000Z,24.63
2022-12-03T02:05:32.003Z,25.30
2022-12-03T02:08:00.002Z,25.53
2022-12-03T02:10:32.076Z,24.27
2022-12-03T02:13:07.979Z,24.10
2022-12-03T02:15:36.801Z,26.00
2022-12-03T02:18:03.967Z,24.20
2022-12-03T02:20:58.326Z,23.43
2022-12-03T02:24:19.099Z,24.53
2022-12-03T02:26:46.268Z,22.73
2022-12-03T02:29:13.492Z,23.83
2022-12-03T02:31:40.517Z,25.30
2022-12-03T02:34:08.477Z,25.13
2022-12-03T02:36:36.511Z,23.70
2022-12-03T02:39:04.998Z,24.13
2022-12-03T02:41:50.838Z,23.80
2022-12-03T02:44:17.728Z,25.03
2022-12-03T02:46:44.796Z,24.93
2022-12-03T02:49:11.830Z,24.43
2022-12-03T02:51:38.768Z,25.77
2022-12-03T02:54:05.747Z,23.90
2022-12-03T02:56:33.557Z,23.80
2022-12-03T02:59:03.675Z,25.17
2022-12-03T03:01:31.062Z,24.57
2022-12-03T03:03:58.674Z,25.90
2022-12-03T03:06:25.907Z,23.93
2022-12-03T03:08:53.078Z,24.80
2022-12-03T03:11:20.362Z,25.17
2022-12-03T03:13:47.830Z,24.07
2022-12-03T03:16:14.998Z,24.70
2022-12-03T03:18:42.396Z,26.40
2022-12-03T03:21:09.369Z,24.90
2022-12-03T03:23:36.488Z,24.00
2022-12-03T03:26:08.878Z,23.97
2022-12-03T03:28:46.697Z,23.70
2022-12-03T03:31:16.614Z,23.33
2022-12-03T03:33:46.202Z,22.07
2022-12-03T03:36:14.736Z,22.73
2022-12-03T03:38:42.244Z,23.67
2022-12-03T03:41:10.405Z,24.40
2022-12-03T03:43:39.142Z,23.80
2022-12-03T03:46:07.599Z,23.93
2022-12-03T03:48:35.771Z,21.80
2022-12-03T03:51:09.050Z,21.97
2022-12-03T03:53:43.807Z,21.07
2022-12-03T03:56:11.575Z,22.20
2022-12-03T03:58:39.032Z,22.63
2022-12-03T04:01:06.593Z,20.23
2022-12-03T04:03:34.517Z,21.20
2022-12-03T04:06:01.534Z,23.00
2022-12-03T04:08:28.487Z,23.27
2022-12-03T04:11:13.894Z,21.97
2022-12-03T04:13:40.839Z,21.80
2022-12-03T04:16:08.211Z,22.23
2022-12-03T04:18:44.022Z,20.53
2022-12-03T04:21:36.566Z,22.03
2022-12-03T04:24:05.272Z,19.90
2022-12-03T04:26:50.537Z,22.90
2022-12-03T04:29:17.563Z,21.97
2022-12-03T04:32:03.011Z,20.73
2022-12-03T04:34:48.884Z,19.73
2022-12-03T04:37:15.957Z,20.60
2022-12-03T04:39:42.935Z,21.80
2022-12-03T04:42:09.882Z,20.80
2022-12-03T04:44:36.970Z,21.80
2022-12-03T04:47:22.467Z,20.77
2022-12-03T04:49:51.852Z,22.50
2022-12-03T04:52:20.962Z,21.60
2022-12-03T04:54:48.197Z,23.43
2022-12-03T04:57:15.227Z,21.83
2022-12-03T04:59:42.221Z,23.10
2022-12-03T05:02:09.458Z,27.97
2022-12-03T05:04:36.453Z,28.73
2022-12-03T05:07:03.990Z,32.77
2022-12-03T05:09:30.970Z,28.87
2022-12-03T05:11:57.878Z,31.40
2022-12-03T05:14:24.810Z,31.93
2022-12-03T05:16:51.981Z,31.40
2022-12-03T05:19:19.164Z,33.57
2022-12-03T05:21:46.135Z,30.77
2022-12-03T05:24:13.057Z,29.80
2022-12-03T05:26:40.126Z,31.40
2022-12-03T05:29:07.080Z,32.37
2022-12-03T05:31:34.021Z,31.57
2022-12-03T05:34:00.938Z,29.43
2022-12-03T05:36:27.917Z,25.90
2022-12-03T05:38:54.871Z,24.70
2022-12-03T05:41:40.050Z,23.07
2022-12-03T05:44:06.987Z,20.97
2022-12-03T05:46:34.120Z,21.27
2022-12-03T05:49:01.303Z,21.20
2022-12-03T05:51:28.420Z,21.10
2022-12-03T05:53:55.338Z,21.60
2022-12-03T05:56:22.271Z,23.20
2022-12-03T05:58:49.292Z,22.30
2022-12-03T06:01:16.629Z,21.67
2022-12-03T06:03:43.626Z,23.57
2022-12-03T06:06:10.745Z,22.53
2022-12-03T06:08:37.763Z,22.37
2022-12-03T06:11:04.717Z,23.60
2022-12-03T06:13:31.700Z,21.90
2022-12-03T06:15:58.693Z,22.60
2022-12-03T06:18:25.641Z,23.70
2022-12-03T06:20:52.605Z,22.50
2022-12-03T06:23:19.548Z,21.70
2022-12-03T06:25:46.521Z,21.43
2022-12-03T06:28:13.676Z,23.53
2022-12-03T06:30:40.748Z,25.67
2022-12-03T06:33:07.735Z,22.80
2022-12-03T06:35:34.745Z,22.07
2022-12-03T06:38:01.749Z,21.50
2022-12-03T06:40:28.743Z,22.63
2022-12-03T06:42:55.694Z,21.30
2022-12-03T06:45:22.603Z,22.20
2022-12-03T06:47:49.556Z,21.97
2022-12-03T06:50:16.526Z,24.30
2022-12-03T06:52:43.408Z,22.20
2022-12-03T06:55:10.524Z,22.60
2022-12-03T06:57:37.493Z,22.23
2022-12-03T07:00:08.383Z,20.57
2022-12-03T07:02:35.888Z,21.30
2022-12-03T07:05:02.968Z,21.17
2022-12-03T07:07:30.042Z,21.20
2022-12-03T07:09:57.018Z,22.80
2022-12-03T07:12:24.105Z,22.40
2022-12-03T07:14:51.262Z,24.70
2022-12-03T07:17:18.694Z,22.13
2022-12-03T07:19:45.745Z,24.60
2022-12-03T07:22:12.672Z,23.23
2022-12-03T07:24:39.744Z,23.00
2022-12-03T07:27:06.759Z,24.70
2022-12-03T07:29:33.713Z,23.13
2022-12-03T07:32:00.665Z,23.17
2022-12-03T07:34:28.316Z,22.40
2022-12-03T07:36:55.295Z,22.33
2022-12-03T07:39:22.308Z,22.13
2022-12-03T07:41:49.293Z,20.80
2022-12-03T07:44:16.259Z,20.70
2022-12-03T07:46:43.351Z,24.30
2022-12-03T07:49:12.307Z,22.83
2022-12-03T07:51:39.345Z,27.90
2022-12-03T07:54:06.290Z,27.93
2022-12-03T07:56:33.256Z,24.73
2022-12-03T07:59:00.218Z,24.10
2022-12-03T08:01:27.325Z,22.53
2022-12-03T08:03:54.423Z,26.63
2022-12-03T08:06:21.361Z,24.80
2022-12-03T08:08:48.330Z,25.80
2022-12-03T08:11:15.756Z,23.30
2022-12-03T08:13:42.913Z,21.60
2022-12-03T08:16:22.038Z,25.23
2022-12-03T08:18:50.457Z,23.97
2022-12-03T08:21:22.490Z,25.20
2022-12-03T08:23:49.679Z,22.40
2022-12-03T08:26:28.321Z,24.40
2022-12-03T08:28:55.414Z,23.50
2022-12-03T08:31:32.797Z,23.40
2022-12-03T08:34:20.122Z,26.10
2022-12-03T08:36:51.052Z,24.03
2022-12-03T08:39:35.808Z,24.90
2022-12-03T08:42:40.234Z,24.63
2022-12-03T08:45:29.574Z,27.90
2022-12-03T08:48:18.923Z,29.27
2022-12-03T08:50:46.523Z,25.63
2022-12-03T08:53:13.335Z,22.90
2022-12-03T08:55:53.043Z,26.23
2022-12-03T08:58:40.930Z,38.33
2022-12-03T09:01:45.428Z,23.93
2022-12-03T09:04:25.229Z,21.67
2022-12-03T09:06:53.945Z,23.30
2022-12-03T09:09:21.946Z,22.70
2022-12-03T09:11:50.137Z,22.23
2022-12-03T09:14:18.889Z,23.47
2022-12-03T09:16:46.395Z,22.00
2022-12-03T09:19:13.472Z,22.87
2022-12-03T09:21:40.445Z,21.90
2022-12-03T09:24:07.767Z,22.87
2022-12-03T09:26:34.809Z,23.10
2022-12-03T09:29:01.898Z,23.17
2022-12-03T09:31:29.024Z,21.03
2022-12-03T09:33:56.250Z,22.80
2022-12-03T09:36:23.189Z,20.90
2022-12-03T09:38:50.402Z,22.70
2022-12-03T09:41:17.514Z,23.40
2022-12-03T09:46:32.977Z,19.50
2022-12-03T09:49:01.563Z,16.30
2022-12-03T09:51:35.548Z,14.20
2022-12-03T09:54:06.158Z,15.17
2022-12-03T09:56:37.344Z,14.73
2022-12-03T09:59:13.693Z,14.50
2022-12-03T10:01:40.806Z,13.60
2022-12-03T10:04:08.273Z,21.97
2022-12-03T10:06:35.616Z,21.17
2022-12-03T10:09:03.142Z,14.30
2022-12-03T10:11:31.647Z,13.30
2022-12-03T10:13:59.143Z,14.07
2022-12-03T10:16:27.980Z,13.53
2022-12-03T10:18:59.723Z,13.00
2022-12-03T10:21:37.868Z,12.17
2022-12-03T10:24:25.914Z,13.07
2022-12-03T10:27:03.312Z,16.43
2022-12-03T10:29:36.264Z,9.93
2022-12-03T10:32:10.224Z,10.00
2022-12-03T10:34:42.423Z,9.07
2022-12-03T10:37:22.602Z,9.07
2022-12-03T10:40:02.438Z,8.13
2022-12-03T10:42:36.912Z,8.73
2022-12-03T10:45:24.082Z,8.73
2022-12-03T10:48:19.615Z,7.37
2022-12-03T10:50:51.883Z,9.80
2022-12-03T10:53:22.357Z,8.60
2022-12-03T10:55:51.866Z,9.37
2022-12-03T10:58:33.761Z,8.70
2022-12-03T11:01:06.419Z,8.90
2022-12-03T11:03:37.250Z,8.53
2022-12-03T11:06:04.378Z,9.30
2022-12-03T11:08:36.290Z,9.10
2022-12-03T11:11:17.306Z,8.40
2022-12-03T11:13:54.550Z,9.83
2022-12-03T11:16:39.891Z,9.60
2022-12-03T11:19:12.809Z,10.70
2022-12-03T11:22:09.697Z,9.87
2022-12-03T11:24:38.680Z,9.30
2022-12-03T11:27:06.898Z,10.70
2022-12-03T11:29:59.229Z,9.60
2022-12-03T11:32:38.448Z,9.83
2022-12-03T11:35:13.149Z,10.40
2022-12-03T11:37:40.211Z,10.50
2022-12-03T11:40:19.268Z,14.20
2022-12-03T11:42:48.140Z,18.00
2022-12-03T11:45:38.570Z,14.33
2022-12-03T11:48:16.042Z,11.23
2022-12-03T11:50:53.641Z,10.97
2022-12-03T11:53:25.709Z,10.30
2022-12-03T11:56:08.463Z,11.57
2022-12-03T11:58:38.991Z,10.67
2022-12-03T12:01:08.150Z,12.87
2022-12-03T12:03:46.531Z,15.23
2022-12-03T12:06:17.888Z,11.83
2022-12-03T12:09:00.420Z,9.63
2022-12-03T12:11:29.581Z,10.53
2022-12-03T12:14:05.939Z,10.17
2022-12-03T12:16:55.941Z,11.70
2022-12-03T12:19:43.289Z,10.70
2022-12-03T12:22:25.426Z,11.60
2022-12-03T12:24:59.945Z,9.33
2022-12-03T12:27:51.043Z,10.50
2022-12-03T12:30:21.668Z,9.70
2022-12-03T12:33:14.516Z,8.93
2022-12-03T12:35:42.111Z,9.50
2022-12-03T12:38:10.971Z,10.70
2022-12-03T12:40:41.387Z,9.07
2022-12-03T12:43:15.268Z,9.33
2022-12-03T12:45:45.427Z,10.23
2022-12-03T12:48:17.114Z,9.90
2022-12-03T12:50:47.968Z,9.50
2022-12-03T12:53:26.673Z,8.30
2022-12-03T12:56:23.236Z,8.93
2022-12-03T12:58:50.357Z,8.70
2022-12-03T13:01:26.196Z,8.70
2022-12-03T13:03:53.635Z,7.77
2022-12-03T13:06:26.788Z,9.33
2022-12-03T13:08:54.905Z,8.47
2022-12-03T13:11:24.794Z,8.10
2022-12-03T13:13:52.211Z,8.30
2022-12-03T13:16:32.089Z,8.07
2022-12-03T13:19:00.647Z,8.30
2022-12-03T13:21:38.175Z,8.77
2022-12-03T13:24:32.434Z,13.67
2022-12-03T13:27:23.074Z,15.60
2022-12-03T13:29:56.488Z,16.33
2022-12-03T13:32:31.175Z,14.57
2022-12-03T13:35:10.175Z,14.20
2022-12-03T13:37:38.043Z,13.43
2022-12-03T13:40:31.656Z,15.20
2022-12-03T13:42:59.486Z,14.47
2022-12-03T13:45:39.201Z,14.10
2022-12-03T13:48:23.147Z,13.53
2022-12-03T13:50:51.636Z,14.33
2022-12-03T13:53:37.248Z,14.93
2022-12-03T13:56:27.845Z,16.80
2022-12-03T13:58:57.331Z,15.00
2022-12-03T14:01:24.665Z,15.77
2022-12-03T14:03:51.688Z,24.20
2022-12-03T14:06:18.794Z,25.80
2022-12-03T14:08:45.790Z,17.57
2022-12-03T14:11:32.702Z,14.57
2022-12-03T14:13:59.671Z,11.77
2022-12-03T14:16:26.731Z,12.47
2022-12-03T14:18:53.816Z,11.57
2022-12-03T14:21:20.723Z,11.40
2022-12-03T14:23:47.642Z,11.03
2022-12-03T14:26:14.638Z,9.73
2022-12-03T14:28:41.583Z,11.57
2022-12-03T14:31:08.536Z,10.60
2022-12-03T14:33:35.529Z,9.23
2022-12-03T14:36:02.790Z,10.50
2022-12-03T14:38:29.777Z,10.03
2022-12-03T14:40:56.751Z,11.50
2022-12-03T14:43:23.748Z,12.00
2022-12-03T14:45:51.269Z,12.67
2022-12-03T14:48:18.360Z,12.43
2022-12-03T14:50:45.379Z,14.47
2022-12-03T14:53:12.332Z,14.70
2022-12-03T14:55:39.284Z,16.73
2022-12-03T14:58:06.182Z,16.80
2022-12-03T15:00:33.229Z,18.80
2022-12-03T15:03:00.290Z,16.40
2022-12-03T15:05:28.964Z,15.10
2022-12-03T15:07:56.523Z,16.33
2022-12-03T15:10:23.514Z,15.70
2022-12-03T15:12:50.440Z,15.40
2022-12-03T15:15:17.356Z,15.27
2022-12-03T15:17:45.861Z,14.20
2022-12-03T15:20:13.236Z,15.00
2022-12-03T15:22:40.145Z,13.50
2022-12-03T15:25:08.088Z,15.03
2022-12-03T15:27:35.618Z,13.97
2022-12-03T15:30:02.715Z,13.20
2022-12-03T15:32:29.620Z,13.27
2022-12-03T15:34:56.768Z,13.87
2022-12-03T15:37:27.557Z,13.63
2022-12-03T15:39:55.005Z,14.13
2022-12-03T15:42:22.298Z,14.93
2022-12-03T15:44:49.292Z,15.73
2022-12-03T15:47:16.318Z,15.73
2022-12-03T15:49:43.291Z,17.20
2022-12-03T15:52:10.304Z,28.17
2022-12-03T15:54:37.327Z,22.80
2022-12-03T15:57:04.338Z,16.90
2022-12-03T15:59:31.267Z,16.53
2022-12-03T16:01:58.248Z,16.30
2022-12-03T16:04:25.268Z,17.83
2022-12-03T16:06:52.184Z,18.97
2022-12-03T16:09:23.751Z,16.37
2022-12-03T16:11:53.807Z,15.53
2022-12-03T16:14:20.775Z,15.03
2022-12-03T16:16:47.735Z,16.73
2022-12-03T16:19:14.689Z,14.20
2022-12-03T16:21:41.724Z,13.90
2022-12-03T16:24:08.641Z,13.57
2022-12-03T16:26:35.615Z,13.80
2022-12-03T16:29:02.620Z,13.90
2022-12-03T16:31:29.851Z,13.83
2022-12-03T16:33:56.891Z,15.57
2022-12-03T16:36:24.102Z,14.10
2022-12-03T16:38:51.071Z,14.30
2022-12-03T16:41:18.819Z,13.23
2022-12-03T16:43:48.721Z,13.23
2022-12-03T16:46:18.442Z,13.30
2022-12-03T16:48:46.192Z,15.77
2022-12-03T16:51:13.351Z,18.50
2022-12-03T16:53:40.379Z,15.00
2022-12-03T16:56:07.412Z,15.37
2022-12-03T16:58:34.540Z,14.57
2022-12-03T17:01:01.795Z,14.73
2022-12-03T17:03:33.658Z,13.97
2022-12-03T17:06:01.882Z,13.30
2022-12-03T17:08:28.840Z,13.73
2022-12-03T17:10:55.930Z,13.03
2022-12-03T17:13:25.572Z,14.43
2022-12-03T17:15:52.623Z,13.30
2022-12-03T17:18:19.650Z,13.17
2022-12-03T17:20:46.652Z,15.17
2022-12-03T17:23:13.627Z,14.30
2022-12-03T17:25:40.496Z,26.97
2022-12-03T17:28:07.440Z,21.67
2022-12-03T17:30:34.403Z,16.17
2022-12-03T17:33:01.397Z,15.97
2022-12-03T17:35:28.675Z,14.87
2022-12-03T17:37:56.029Z,15.57
2022-12-03T17:40:23.169Z,14.57
2022-12-03T17:42:50.122Z,14.30
2022-12-03T17:45:17.342Z,13.60
2022-12-03T17:47:44.287Z,14.60
2022-12-03T17:50:11.651Z,14.23
2022-12-03T17:52:38.722Z,14.47
2022-12-03T17:55:16.331Z,15.47
2022-12-03T17:57:48.455Z,15.10
2022-12-03T18:00:15.736Z,14.23
2022-12-03T18:02:42.878Z,12.53
2022-12-03T18:05:10.377Z,13.47
2022-12-03T18:07:37.405Z,13.90
2022-12-03T18:10:05.161Z,13.83
2022-12-03T18:12:32.281Z,12.70
2022-12-03T18:14:59.248Z,13.13
2022-12-03T18:17:26.299Z,17.87
2022-12-03T18:19:53.605Z,19.90
2022-12-03T18:22:21.065Z,15.70
2022-12-03T18:24:51.463Z,14.33
2022-12-03T18:27:21.116Z,13.90
2022-12-03T18:29:48.453Z,13.20
2022-12-03T18:32:28.364Z,12.83
2022-12-03T18:34:57.738Z,13.20
2022-12-03T18:37:28.970Z,11.87
2022-12-03T18:39:57.784Z,13.10
2022-12-03T18:42:25.326Z,13.10
2022-12-03T18:44:55.032Z,12.77
2022-12-03T18:47:26.343Z,13.50
2022-12-03T18:49:53.883Z,14.43
2022-12-03T18:52:23.157Z,13.67
2022-12-03T18:54:50.170Z,14.60
2022-12-03T18:57:17.151Z,14.80
2022-12-03T18:59:44.395Z,14.97
2022-12-03T19:05:09.095Z,14.60
2022-12-03T19:07:38.557Z,13.47
2022-12-03T19:10:06.911Z,13.17
2022-12-03T19:12:34.268Z,16.23
2022-12-03T19:15:01.894Z,22.37
2022-12-03T19:17:29.297Z,19.73
2022-12-03T19:19:56.497Z,13.50
2022-12-03T19:22:24.076Z,13.50
2022-12-03T19:24:51.159Z,12.67
2022-12-03T19:27:18.241Z,13.23
2022-12-03T19:29:48.894Z,13.30
2022-12-03T19:32:15.894Z,12.70
2022-12-03T19:34:42.787Z,13.33
2022-12-03T19:37:09.706Z,12.20
2022-12-03T19:39:36.726Z,13.50
2022-12-03T19:42:03.780Z,14.60
2022-12-03T19:44:31.128Z,14.90
2022-12-03T19:46:58.066Z,14.27
2022-12-03T19:49:25.252Z,13.53
2022-12-03T19:51:52.740Z,14.40
2022-12-03T19:54:19.706Z,14.47
2022-12-03T19:56:46.727Z,14.73
2022-12-03T19:59:14.390Z,14.90
2022-12-03T20:01:43.231Z,14.20
2022-12-03T20:04:12.070Z,13.30
2022-12-03T20:06:39.310Z,14.70
2022-12-03T20:09:13.595Z,14.70
2022-12-03T20:11:42.019Z,13.57
2022-12-03T20:14:15.886Z,14.37
2022-12-03T20:16:44.288Z,14.90
2022-12-03T20:19:14.908Z,13.70
2022-12-03T20:21:42.965Z,13.87
2022-12-03T20:24:15.790Z,13.40
2022-12-03T20:26:43.528Z,13.47
2022-12-03T20:29:10.577Z,14.03
2022-12-03T20:31:37.683Z,14.30
2022-12-03T20:34:05.077Z,14.90
2022-12-03T20:36:33.064Z,13.23
2022-12-03T20:39:05.263Z,14.00
2022-12-03T20:41:35.982Z,14.73
2022-12-03T20:44:05.914Z,15.03
2022-12-03T20:46:33.156Z,14.73
2022-12-03T20:49:00.264Z,13.90
2022-12-03T20:51:30.312Z,14.17
2022-12-03T20:53:59.516Z,15.33
2022-12-03T20:56:31.492Z,13.23
2022-12-03T20:59:05.275Z,14.50
2022-12-03T21:01:32.611Z,14.10
2022-12-03T21:03:59.768Z,14.40
2022-12-03T21:06:30.001Z,14.27
2022-12-03T21:08:59.100Z,15.03
2022-12-03T21:11:32.445Z,13.97
2022-12-03T21:14:00.462Z,14.53
2022-12-03T21:17:05.934Z,15.57
2022-12-03T21:19:20.392Z,15.43
2022-12-03T21:21:47.485Z,15.80
2022-12-03T21:24:14.843Z,13.80
2022-12-03T21:26:41.884Z,16.00
2022-12-03T21:29:09.122Z,15.13
2022-12-03T21:31:37.850Z,14.00
2022-12-03T21:34:05.147Z,13.53
2022-12-03T21:36:32.458Z,14.13
2022-12-03T21:38:59.663Z,14.70
2022-12-03T21:41:26.810Z,13.83
2022-12-03T21:43:53.812Z,15.50
2022-12-03T21:47:11.700Z,14.80
2022-12-03T21:49:07.779Z,15.37
2022-12-03T21:51:34.756Z,15.50
2022-12-03T21:54:01.642Z,15.57
2022-12-03T21:56:31.783Z,13.60
2022-12-03T21:58:58.747Z,14.30
2022-12-03T22:01:25.991Z,15.33
2022-12-03T22:03:53.163Z,13.13
2022-12-03T22:06:21.126Z,13.17
2022-12-03T22:08:48.606Z,13.90
2022-12-03T22:11:23.712Z,13.37
2022-12-03T22:13:51.611Z,13.80
2022-12-03T22:16:20.935Z,14.10
2022-12-03T22:18:48.443Z,13.23
2022-12-03T22:21:19.194Z,13.40
2022-12-03T22:23:46.663Z,14.10
2022-12-03T22:26:16.720Z,14.50
2022-12-03T22:28:46.666Z,14.57
2022-12-03T22:31:14.880Z,12.80
2022-12-03T22:33:43.420Z,13.40
2022-12-03T22:36:20.054Z,13.90
2022-12-03T22:38:49.301Z,13.60
2022-12-03T22:41:16.797Z,13.70
2022-12-03T22:43:44.953Z,15.07
2022-12-03T22:46:12.981Z,14.63
2022-12-03T22:48:42.027Z,13.70
2022-12-03T22:51:22.266Z,14.37
2022-12-03T22:53:55.734Z,14.43
2022-12-03T22:56:23.152Z,13.20
2022-12-03T22:58:50.707Z,14.07
2022-12-03T23:01:30.924Z,14.37
2022-12-03T23:03:58.850Z,14.17
2022-12-03T23:06:26.568Z,13.70
2022-12-03T23:08:54.047Z,14.10
2022-12-03T23:11:21.955Z,13.00
2022-12-03T23:13:49.015Z,12.63
2022-12-03T23:16:27.213Z,12.37
2022-12-03T23:18:54.440Z,12.30
2022-12-03T23:21:29.529Z,11.60
2022-12-03T23:23:59.702Z,13.40
2022-12-03T23:26:27.683Z,12.30
2022-12-03T23:28:54.847Z,14.23
2022-12-03T23:31:33.124Z,13.73
2022-12-03T23:34:01.252Z,12.53
2022-12-03T23:36:32.297Z,12.93
2022-12-03T23:38:59.663Z,12.50
2022-12-03T23:41:27.002Z,12.20
2022-12-03T23:43:54.137Z,13.43
2022-12-03T23:46:24.647Z,12.17
2022-12-03T23:48:52.396Z,10.50
2022-12-03T23:51:24.542Z,12.50
2022-12-03T23:53:55.746Z,11.20
2022-12-03T23:56:29.619Z,11.90
2022-12-03T23:58:58.011Z,12.60
